Terminal Aerodrome Forecast
Issued by NWS

Home | Current Version | Previous Version | Text Only | Print | Product List | Glossary On
Versions: 1 2 3 4 5 6 7 8 9 10 11 12 13 14 15
000
FTUS43 KIND 181730
TAFBMG
TAF
KBMG 181730Z 1818/1918 28010KT P6SM SCT035
     FM182300 27004KT P6SM FEW250
     FM190900 VRB03KT P6SM VCSH BKN080
     FM191400 26008KT P6SM SCT030=

USA.gov is the U.S. government's official web portal to all federal, state and local government web resources and services.